Time;durP1;ratioP1;P1;durP2;ratioP2;P2;SDS_P1;SDS_P2;PMS_P1;PMS_P2;Temp;Humidity;BMP_temperature;BMP_pressure;BME280_temperature;BME280_humidity;BME280_pressure;Samples;Min_cycle;Max_cycle;Signal;HPM_P1;HPM_P2
2024/01/10 00:00:38;;;;;;;1.60;1.50;;;-4.30;99.90;;;;;;5158443;27;20046;-77
2024/01/10 00:03:03;;;;;;;1.77;1.67;;;-4.40;99.90;;;;;;5158230;27;20504;-77
2024/01/10 00:05:29;;;;;;;1.60;1.50;;;-4.40;99.90;;;;;;5158257;27;20047;-77
2024/01/10 00:07:54;;;;;;;1.75;1.65;;;-4.40;99.90;;;;;;5140532;27;20039;-76
2024/01/10 00:10:21;;;;;;;1.70;1.60;;;-4.40;99.90;;;;;;5157950;27;20095;-77
2024/01/10 00:12:47;;;;;;;1.70;1.60;;;-4.40;99.90;;;;;;5158157;27;20046;-76
2024/01/10 00:15:13;;;;;;;1.70;1.60;;;-4.40;99.90;;;;;;5157883;27;20043;-76
2024/01/10 00:17:40;;;;;;;1.70;1.60;;;-4.40;99.90;;;;;;5158142;27;20053;-77
2024/01/10 00:20:07;;;;;;;1.65;1.55;;;-4.40;99.90;;;;;;5157942;27;20038;-76
2024/01/10 00:22:33;;;;;;;1.60;1.50;;;-4.50;99.90;;;;;;5157938;27;20050;-77
2024/01/10 00:24:58;;;;;;;1.70;1.60;;;-4.40;99.90;;;;;;5157884;27;20047;-77
2024/01/10 00:27:24;;;;;;;1.70;1.60;;;-4.50;99.90;;;;;;5157835;27;20355;-76
2024/01/10 00:29:51;;;;;;;1.70;1.60;;;-4.50;99.90;;;;;;5157610;27;20074;-76
2024/01/10 00:32:17;;;;;;;1.70;1.60;;;-4.50;99.90;;;;;;5157702;27;20042;-76
2024/01/10 00:34:43;;;;;;;1.70;1.60;;;-4.50;99.90;;;;;;5157719;27;20038;-76
2024/01/10 00:37:08;;;;;;;1.80;1.70;;;-4.50;99.90;;;;;;5157699;27;20054;-76
2024/01/10 00:39:34;;;;;;;1.90;1.80;;;-4.60;99.90;;;;;;5157610;27;20482;-76
2024/01/10 00:41:59;;;;;;;1.80;1.70;;;-4.80;99.90;;;;;;5157518;27;20035;-77
2024/01/10 00:44:25;;;;;;;1.80;1.70;;;-4.50;99.90;;;;;;5157571;27;20039;-77
2024/01/10 00:46:51;;;;;;;1.70;1.60;;;-4.90;99.90;;;;;;5157241;27;20397;-77
2024/01/10 00:49:16;;;;;;;1.60;1.50;;;-4.50;99.90;;;;;;5157347;27;20084;-77
2024/01/10 00:51:42;;;;;;;1.80;1.70;;;-4.20;99.90;;;;;;5139138;27;20054;-76
2024/01/10 00:54:07;;;;;;;1.70;1.60;;;-4.50;99.90;;;;;;5139069;27;20428;-76
2024/01/10 00:56:33;;;;;;;1.98;1.85;;;-4.50;99.90;;;;;;5157374;27;20055;-77
2024/01/10 00:58:58;;;;;;;1.80;1.70;;;-4.60;99.90;;;;;;5157250;27;20042;-77
2024/01/10 01:01:24;;;;;;;1.70;1.60;;;-4.50;99.90;;;;;;5157395;27;20125;-76
2024/01/10 01:03:50;;;;;;;1.70;1.60;;;-4.60;99.90;;;;;;5138286;27;20394;-76
2024/01/10 01:06:16;;;;;;;1.70;1.60;;;-4.60;99.90;;;;;;5157108;27;20043;-76
2024/01/10 01:08:41;;;;;;;1.77;1.67;;;-4.60;99.90;;;;;;5138741;27;20121;-76
2024/01/10 01:11:07;;;;;;;1.80;1.70;;;-4.60;99.90;;;;;;5138668;27;20453;-77
2024/01/10 01:13:32;;;;;;;1.80;1.70;;;-4.70;99.90;;;;;;5156916;27;20083;-76
2024/01/10 01:15:58;;;;;;;1.88;1.77;;;-4.70;99.90;;;;;;5138427;27;20155;-76
2024/01/10 01:18:24;;;;;;;1.80;1.70;;;-4.70;99.90;;;;;;5156819;27;20047;-77
2024/01/10 01:20:50;;;;;;;1.90;1.80;;;-4.70;99.90;;;;;;5156838;27;20031;-77
2024/01/10 01:23:15;;;;;;;1.73;1.63;;;-5.20;99.90;;;;;;5156606;27;20122;-76
2024/01/10 01:25:41;;;;;;;1.67;1.57;;;-4.70;99.90;;;;;;5156599;27;20206;-77
2024/01/10 01:28:08;;;;;;;1.60;1.50;;;-4.70;99.90;;;;;;5156675;27;20464;-76
2024/01/10 01:30:33;;;;;;;1.80;1.70;;;-4.80;99.90;;;;;;5156163;27;20043;-77
2024/01/10 01:32:59;;;;;;;1.80;1.70;;;-3.70;99.90;;;;;;5156580;27;20049;-77
2024/01/10 01:35:24;;;;;;;1.70;1.60;;;-4.90;99.90;;;;;;5156479;27;20038;-77
2024/01/10 01:37:51;;;;;;;1.80;1.70;;;-4.80;99.90;;;;;;5156510;27;20095;-77
2024/01/10 01:40:18;;;;;;;1.70;1.60;;;-4.70;99.90;;;;;;5156314;27;20042;-76
2024/01/10 01:42:45;;;;;;;1.70;1.60;;;-4.80;99.90;;;;;;5156397;27;20088;-76
2024/01/10 01:45:12;;;;;;;;;;;-4.80;99.90;;;;;;5156717;27;20082;-76
2024/01/10 01:47:40;;;;;;;1.65;1.55;;;-4.70;99.90;;;;;;5156292;27;19919;-77
2024/01/10 01:50:06;;;;;;;1.70;1.60;;;-4.10;99.90;;;;;;5156716;27;20437;-76
2024/01/10 01:52:34;;;;;;;2.55;2.40;;;-4.80;99.90;;;;;;5156171;27;20086;-77
2024/01/10 01:55:01;;;;;;;1.70;1.60;;;-4.80;99.90;;;;;;5156105;27;20047;-77
2024/01/10 01:57:26;;;;;;;1.70;1.60;;;-4.80;99.90;;;;;;5156158;27;20039;-77
2024/01/10 01:59:52;;;;;;;1.70;1.60;;;-4.80;99.90;;;;;;5156148;27;20049;-76
2024/01/10 02:02:18;;;;;;;1.80;1.70;;;-5.10;99.90;;;;;;5137210;27;20046;-76
2024/01/10 02:04:46;;;;;;;1.73;1.63;;;-5.10;99.90;;;;;;5137489;27;20050;-77
2024/01/10 02:07:12;;;;;;;1.80;1.70;;;-4.00;99.90;;;;;;5155848;27;20043;-76
2024/01/10 02:09:38;;;;;;;1.70;1.60;;;-4.90;99.90;;;;;;5155799;27;20045;-76
2024/01/10 02:12:04;;;;;;;2.33;2.22;;;-5.20;99.90;;;;;;5155684;27;20288;-76
2024/01/10 02:14:30;;;;;;;1.80;1.70;;;-4.80;99.90;;;;;;5155720;27;20043;-76
2024/01/10 02:16:56;;;;;;;1.70;1.60;;;;;;;;;;5155699;27;20045;-76
2024/01/10 02:19:23;;;;;;;1.70;1.60;;;-4.80;99.90;;;;;;5137672;27;20119;-77
2024/01/10 02:21:48;;;;;;;;;;;-5.20;99.90;;;;;;5156124;27;20077;-77
2024/01/10 02:24:14;;;;;;;1.70;1.60;;;-4.90;99.90;;;;;;5155655;27;20283;-77
2024/01/10 02:26:40;;;;;;;1.80;1.70;;;-4.80;99.90;;;;;;5155601;27;20041;-76
2024/01/10 02:29:06;;;;;;;1.80;1.70;;;-4.70;99.90;;;;;;5155236;27;20079;-76
2024/01/10 02:31:31;;;;;;;1.70;1.60;;;-4.90;99.90;;;;;;5155565;27;20288;-77
2024/01/10 02:33:57;;;;;;;1.80;1.70;;;-5.20;99.90;;;;;;5155563;27;20085;-76
2024/01/10 02:36:23;;;;;;;1.80;1.70;;;-4.90;99.90;;;;;;5155438;27;20390;-77
2024/01/10 02:38:50;;;;;;;1.80;1.70;;;-4.80;99.90;;;;;;5136917;27;20091;-77
2024/01/10 02:41:15;;;;;;;1.70;1.60;;;-5.10;99.90;;;;;;5155471;27;20050;-76
2024/01/10 02:43:41;;;;;;;1.70;1.60;;;-4.90;99.90;;;;;;5137190;27;20043;-77
2024/01/10 02:46:06;;;;;;;1.80;1.70;;;-4.90;99.90;;;;;;5155379;27;20141;-76
2024/01/10 02:48:32;;;;;;;1.70;1.60;;;-4.90;99.90;;;;;;5155073;27;20076;-77
2024/01/10 02:50:57;;;;;;;1.90;1.80;;;-4.90;99.90;;;;;;5155607;27;20043;-76
2024/01/10 02:53:23;;;;;;;1.73;1.63;;;-5.40;99.90;;;;;;5155342;27;20129;-77
2024/01/10 02:55:49;;;;;;;1.70;1.60;;;-4.90;99.90;;;;;;5155214;27;20045;-77
2024/01/10 02:58:15;;;;;;;1.88;1.77;;;-5.00;99.90;;;;;;5155259;27;20047;-77
2024/01/10 03:00:41;;;;;;;1.87;1.77;;;;;;;;;;5136957;27;20138;-77
2024/01/10 03:03:07;;;;;;;1.80;1.70;;;-4.90;99.90;;;;;;5155251;27;20086;-77
2024/01/10 03:05:32;;;;;;;1.80;1.70;;;-5.00;99.90;;;;;;5155142;27;20073;-77
2024/01/10 03:07:58;;;;;;;1.80;1.70;;;-5.00;99.90;;;;;;5155238;27;20049;-77
2024/01/10 03:10:23;;;;;;;1.80;1.70;;;-5.00;99.90;;;;;;5154825;27;20043;-77
2024/01/10 03:12:49;;;;;;;1.77;1.67;;;;;;;;;;5155133;27;20130;-77
2024/01/10 03:15:15;;;;;;;1.70;1.60;;;-5.00;99.90;;;;;;5155150;27;20078;-77
2024/01/10 03:17:41;;;;;;;1.70;1.60;;;-5.00;99.90;;;;;;5155025;27;20084;-77
2024/01/10 03:20:08;;;;;;;1.70;1.60;;;-5.00;99.90;;;;;;5155131;27;20038;-77
2024/01/10 03:22:34;;;;;;;1.80;1.70;;;-5.00;99.90;;;;;;5155511;27;20061;-77
2024/01/10 03:25:00;;;;;;;1.70;1.60;;;-5.00;99.90;;;;;;5154854;27;20466;-77
2024/01/10 03:27:26;;;;;;;1.90;1.80;;;-5.00;99.90;;;;;;5154965;27;20045;-77
2024/01/10 03:29:51;;;;;;;1.80;1.70;;;-5.00;99.90;;;;;;5154916;27;20075;-77
2024/01/10 03:32:17;;;;;;;2.33;2.23;;;-5.00;99.90;;;;;;5157580;27;20050;-77
2024/01/10 03:34:42;;;;;;;1.70;1.60;;;-5.20;99.90;;;;;;5159299;27;20046;-77
2024/01/10 03:37:08;;;;;;;1.70;1.60;;;-5.00;99.90;;;;;;5159055;27;20075;-77
2024/01/10 03:39:34;;;;;;;1.93;1.83;;;;;;;;;;5158785;27;20075;-77
2024/01/10 03:42:00;;;;;;;1.80;1.70;;;-5.00;99.90;;;;;;5158507;27;20074;-77
2024/01/10 03:44:26;;;;;;;2.67;2.30;;;-2.80;99.90;;;;;;5158628;27;20276;-77
2024/01/10 03:46:52;;;;;;;;;;;-5.00;99.90;;;;;;5158974;27;20050;-77
2024/01/10 03:49:18;;;;;;;1.70;1.60;;;-5.10;99.90;;;;;;5158238;27;20247;-77
2024/01/10 03:51:43;;;;;;;1.80;1.70;;;-5.00;99.90;;;;;;5140028;27;20109;-77
2024/01/10 03:54:09;;;;;;;1.80;1.70;;;-5.40;99.90;;;;;;5158683;27;20134;-77
2024/01/10 03:56:35;;;;;;;1.95;1.85;;;-5.10;99.90;;;;;;5158238;27;20039;-77
2024/01/10 03:59:01;;;;;;;1.77;1.67;;;-5.10;99.90;;;;;;5158431;27;20355;-77
2024/01/10 04:01:26;;;;;;;1.80;1.70;;;-5.10;99.90;;;;;;5158299;27;20083;-77
2024/01/10 04:03:52;;;;;;;2.13;2.03;;;-5.50;99.90;;;;;;5158803;27;20043;-77
2024/01/10 04:06:18;;;;;;;1.80;1.70;;;-5.10;99.90;;;;;;5158295;27;20123;-77
2024/01/10 04:08:43;;;;;;;1.77;1.67;;;-5.50;99.90;;;;;;5158191;27;20054;-77
2024/01/10 04:11:09;;;;;;;5.00;4.73;;;-5.40;99.90;;;;;;5158349;27;20071;-77
2024/01/10 04:13:35;;;;;;;1.90;1.80;;;-5.40;99.90;;;;;;5158254;27;20039;-77
2024/01/10 04:16:00;;;;;;;1.80;1.70;;;-5.40;99.90;;;;;;5139819;27;20043;-77
2024/01/10 04:18:26;;;;;;;2.03;1.93;;;-5.20;99.90;;;;;;5158090;27;20042;-77
2024/01/10 04:20:51;;;;;;;1.90;1.80;;;-5.20;99.90;;;;;;5139911;27;20046;-77
2024/01/10 04:23:17;;;;;;;1.90;1.80;;;-5.20;99.90;;;;;;5157715;27;20047;-77
2024/01/10 04:25:43;;;;;;;1.90;1.80;;;;;;;;;;5158032;27;20122;-77
2024/01/10 04:28:09;;;;;;;1.80;1.70;;;-5.20;99.90;;;;;;5158011;27;20142;-77
2024/01/10 04:30:34;;;;;;;1.80;1.70;;;-5.20;99.90;;;;;;5157722;27;20042;-77
2024/01/10 04:33:00;;;;;;;1.90;1.80;;;-5.20;99.90;;;;;;5157861;27;20047;-77
2024/01/10 04:35:25;;;;;;;1.70;1.60;;;-5.30;99.90;;;;;;5157809;27;20126;-77
2024/01/10 04:37:51;;;;;;;2.00;1.90;;;-5.50;99.90;;;;;;5157718;27;20125;-77
2024/01/10 04:40:17;;;;;;;1.90;1.80;;;-5.20;99.90;;;;;;5157520;27;20124;-77
2024/01/10 04:42:43;;;;;;;1.90;1.80;;;-5.20;99.90;;;;;;5157310;27;20043;-77
2024/01/10 04:45:09;;;;;;;2.00;1.90;;;-5.20;99.90;;;;;;5139104;27;20049;-77
2024/01/10 04:47:35;;;;;;;1.80;1.70;;;-5.20;99.90;;;;;;5157203;27;20035;-77
2024/01/10 04:50:01;;;;;;;1.80;1.70;;;-5.20;99.90;;;;;;5157630;27;20050;-77
2024/01/10 04:52:26;;;;;;;1.90;1.80;;;-5.20;99.90;;;;;;5157446;27;20126;-77
2024/01/10 04:54:52;;;;;;;1.90;1.80;;;-5.20;99.90;;;;;;5157659;27;20039;-77
2024/01/10 04:57:18;;;;;;;1.90;1.80;;;-5.20;99.90;;;;;;5139004;27;20118;-77
2024/01/10 04:59:43;;;;;;;1.90;1.80;;;-5.20;99.90;;;;;;5157058;27;20045;-77
2024/01/10 05:02:09;;;;;;;2.00;1.90;;;-5.20;99.90;;;;;;5157154;27;20043;-78
2024/01/10 05:04:35;;;;;;;2.10;2.00;;;-5.20;99.90;;;;;;5157101;27;20047;-77
2024/01/10 05:07:00;;;;;;;1.90;1.80;;;-5.20;99.90;;;;;;5157211;27;20043;-77
2024/01/10 05:09:26;;;;;;;1.80;1.70;;;-5.10;99.90;;;;;;5157216;27;20043;-77
2024/01/10 05:11:52;;;;;;;2.00;1.90;;;-5.10;99.90;;;;;;5138740;27;20129;-78
2024/01/10 05:14:21;;;;;;;1.80;1.70;;;-5.40;99.90;;;;;;5157131;27;20159;-77
2024/01/10 05:16:50;;;;;;;1.70;1.60;;;-5.10;99.90;;;;;;5156773;27;20039;-77
2024/01/10 05:19:15;;;;;;;1.80;1.70;;;-5.20;99.90;;;;;;5156807;27;20043;-77
2024/01/10 05:21:41;;;;;;;1.80;1.70;;;-5.10;99.90;;;;;;5156875;27;20046;-78
2024/01/10 05:24:07;;;;;;;1.80;1.70;;;-5.20;99.90;;;;;;5157164;27;20046;-78
2024/01/10 05:26:32;;;;;;;1.93;1.83;;;-5.20;99.90;;;;;;5156396;27;20047;-77
2024/01/10 05:28:58;;;;;;;1.80;1.70;;;-5.20;99.90;;;;;;5156486;27;20051;-77
2024/01/10 05:31:24;;;;;;;1.80;1.70;;;-5.20;99.90;;;;;;5156663;27;20050;-78
2024/01/10 05:33:49;;;;;;;1.90;1.80;;;-5.70;99.90;;;;;;5157122;27;20465;-78
2024/01/10 05:36:15;;;;;;;1.50;1.40;;;-5.50;99.90;;;;;;5156840;27;20367;-77
2024/01/10 05:38:41;;;;;;;1.80;1.70;;;-4.90;99.90;;;;;;5156809;27;20066;-78
2024/01/10 05:41:06;;;;;;;1.80;1.70;;;-5.30;99.90;;;;;;5138682;27;20042;-77
2024/01/10 05:43:32;;;;;;;1.70;1.60;;;-5.30;99.90;;;;;;5156703;27;20046;-78
2024/01/10 05:45:59;;;;;;;1.70;1.60;;;-5.20;99.90;;;;;;5137952;27;20132;-82
2024/01/10 05:48:24;;;;;;;;;;;-5.20;99.90;;;;;;5156793;27;20394;-79
2024/01/10 05:50:50;;;;;;;1.70;1.60;;;-5.20;99.90;;;;;;5156607;27;19919;-78
2024/01/10 05:53:17;;;;;;;1.90;1.80;;;-5.30;99.90;;;;;;5156532;27;20042;-76
2024/01/10 05:55:43;;;;;;;1.80;1.70;;;-5.20;99.90;;;;;;5155316;27;20129;-78
2024/01/10 05:58:09;;;;;;;1.80;1.70;;;-5.30;99.90;;;;;;5138272;27;20100;-79
2024/01/10 06:00:35;;;;;;;1.80;1.70;;;-5.30;99.90;;;;;;5157259;27;20497;-75
2024/01/10 06:03:00;;;;;;;1.70;1.60;;;-5.30;99.90;;;;;;5156490;27;20035;-78
2024/01/10 06:05:26;;;;;;;1.90;1.80;;;-5.30;99.90;;;;;;5156412;27;20099;-81
2024/01/10 06:07:52;;;;;;;1.90;1.80;;;-5.30;99.90;;;;;;5156290;27;20050;-80
2024/01/10 06:10:18;;;;;;;1.90;1.80;;;-4.60;99.90;;;;;;5156557;27;20073;-80
2024/01/10 06:12:43;;;;;;;1.83;1.73;;;-5.50;99.90;;;;;;5156083;27;20331;-79
2024/01/10 06:15:09;;;;;;;1.90;1.80;;;-5.30;99.90;;;;;;5155679;27;20070;-79
2024/01/10 06:17:35;;;;;;;1.70;1.60;;;-5.30;99.90;;;;;;5155796;27;20091;-80
2024/01/10 06:20:02;;;;;;;1.70;1.60;;;-5.30;99.90;;;;;;5155679;27;20034;-79
2024/01/10 06:22:28;;;;;;;1.80;1.70;;;-5.30;99.90;;;;;;5155806;27;20042;-78
2024/01/10 06:24:54;;;;;;;1.90;1.80;;;-5.30;99.90;;;;;;5156300;27;20501;-81
2024/01/10 06:27:19;;;;;;;1.80;1.70;;;-5.40;99.90;;;;;;5137824;27;20051;-79
2024/01/10 06:29:45;;;;;;;1.93;1.83;;;-5.30;99.90;;;;;;5156081;27;20037;-78
2024/01/10 06:32:11;;;;;;;1.87;1.77;;;-5.60;99.90;;;;;;5136739;27;20038;-79
2024/01/10 06:34:37;;;;;;;1.80;1.70;;;-5.30;99.90;;;;;;5155449;27;20050;-80
2024/01/10 06:37:03;;;;;;;1.83;1.73;;;-5.30;99.90;;;;;;5137502;27;20470;-80
2024/01/10 06:39:28;;;;;;;1.90;1.80;;;-5.30;99.90;;;;;;5137047;27;20402;-77
2024/01/10 06:41:55;;;;;;;1.90;1.80;;;-5.70;99.90;;;;;;5155392;27;20039;-77
2024/01/10 06:44:20;;;;;;;1.90;1.80;;;-5.30;99.90;;;;;;5155528;27;20093;-83
2024/01/10 06:46:46;;;;;;;1.80;1.70;;;-5.60;99.90;;;;;;5155811;27;20398;-82
2024/01/10 06:49:11;;;;;;;1.80;1.70;;;-5.90;99.90;;;;;;5136624;27;20051;-85
2024/01/10 06:51:37;;;;;;;1.80;1.70;;;-5.30;99.90;;;;;;5120065;27;20195;-82
2024/01/10 06:54:04;;;;;;;1.80;1.70;;;-5.40;99.90;;;;;;5155497;27;20046;-82
2024/01/10 06:56:32;;;;;;;1.70;1.60;;;-5.80;99.90;;;;;;5155396;27;20053;-77
2024/01/10 06:59:04;;;;;;;1.60;1.50;;;-5.40;99.90;;;;;;5154842;27;20045;-82
2024/01/10 07:01:30;;;;;;;1.80;1.70;;;-5.40;99.90;;;;;;5120546;27;20035;-81
2024/01/10 07:03:56;;;;;;;1.80;1.70;;;-5.50;99.90;;;;;;5155567;27;20047;-78
2024/01/10 07:06:22;;;;;;;1.80;1.70;;;-5.40;99.90;;;;;;5157627;27;20049;-76
2024/01/10 07:08:49;;;;;;;1.80;1.70;;;-5.40;99.90;;;;;;5159432;27;20091;-75
2024/01/10 07:11:15;;;;;;;1.70;1.60;;;-5.40;99.90;;;;;;5159215;27;20058;-76
2024/01/10 07:13:41;;;;;;;1.80;1.70;;;-5.20;99.90;;;;;;5159155;27;20125;-77
2024/01/10 07:16:07;;;;;;;1.80;1.70;;;-5.30;99.90;;;;;;5158873;27;20051;-78
2024/01/10 07:18:33;;;;;;;1.80;1.70;;;-5.50;99.90;;;;;;5158787;27;20059;-76
2024/01/10 07:20:59;;;;;;;1.80;1.70;;;-5.50;99.90;;;;;;5159148;27;20039;-76
2024/01/10 07:23:25;;;;;;;1.70;1.60;;;-6.00;99.90;;;;;;5159199;27;20097;-81
2024/01/10 07:25:51;;;;;;;1.70;1.60;;;-5.50;99.90;;;;;;5158997;27;20039;-76
2024/01/10 07:28:17;;;;;;;3.60;3.40;;;-5.50;99.90;;;;;;5158991;27;20098;-75
2024/01/10 07:30:44;;;;;;;1.80;1.70;;;-5.50;99.90;;;;;;5158697;27;20046;-76
2024/01/10 07:33:10;;;;;;;1.80;1.70;;;-5.50;99.90;;;;;;5158804;27;20198;-77
2024/01/10 07:35:37;;;;;;;1.85;1.75;;;-5.50;99.90;;;;;;5158720;27;20043;-75
2024/01/10 07:38:04;;;;;;;1.80;1.70;;;-5.50;99.90;;;;;;5158639;27;20125;-75
2024/01/10 07:40:29;;;;;;;2.08;1.98;;;-5.50;99.90;;;;;;5158432;27;20043;-75
2024/01/10 07:42:55;;;;;;;1.90;1.80;;;-5.50;99.90;;;;;;5158486;27;20043;-77
2024/01/10 07:45:22;;;;;;;1.90;1.80;;;-5.50;99.90;;;;;;5158621;27;20050;-77
2024/01/10 07:47:47;;;;;;;1.83;1.73;;;-5.50;99.90;;;;;;5150629;27;20050;-77
2024/01/10 07:50:14;;;;;;;1.80;1.70;;;-3.80;99.90;;;;;;5146102;27;20051;-75
2024/01/10 07:52:40;;;;;;;1.98;1.88;;;-4.30;99.90;;;;;;5137374;27;20043;-76
2024/01/10 07:55:06;;;;;;;1.60;1.50;;;-5.40;99.90;;;;;;5137396;27;20047;-76
2024/01/10 07:57:33;;;;;;;1.70;1.60;;;-5.40;99.90;;;;;;5154750;27;20039;-77
2024/01/10 07:59:59;;;;;;;1.80;1.70;;;-5.80;99.90;;;;;;5158909;27;20070;-71
2024/01/10 08:02:25;;;;;;;1.80;1.70;;;-5.40;99.90;;;;;;5158783;27;20096;-75
2024/01/10 08:04:51;;;;;;;1.80;1.70;;;-5.70;99.90;;;;;;5158236;27;20071;-76
2024/01/10 08:07:17;;;;;;;1.80;1.70;;;-5.40;99.90;;;;;;5157345;27;20074;-76
2024/01/10 08:09:43;;;;;;;1.80;1.70;;;-5.40;99.90;;;;;;5156442;27;20124;-76
2024/01/10 08:12:08;;;;;;;5.67;5.37;;;-5.30;99.90;;;;;;5157950;27;20074;-76
2024/01/10 08:14:34;;;;;;;1.70;1.60;;;-5.40;99.90;;;;;;5157668;27;20042;-76
2024/01/10 08:17:00;;;;;;;1.60;1.50;;;-5.50;99.90;;;;;;5156818;27;20108;-76
2024/01/10 08:19:27;;;;;;;1.80;1.70;;;-5.30;99.90;;;;;;5157561;27;20035;-76
2024/01/10 08:21:56;;;;;;;1.70;1.60;;;-5.30;99.90;;;;;;5157988;27;20077;-76
2024/01/10 08:24:22;;;;;;;1.80;1.70;;;-5.90;99.90;;;;;;5157916;27;20442;-76
2024/01/10 08:26:51;;;;;;;1.80;1.70;;;-5.20;99.90;;;;;;5157902;27;20039;-76
2024/01/10 08:29:20;;;;;;;1.70;1.60;;;-5.20;99.90;;;;;;5157724;27;20083;-76
2024/01/10 08:31:47;;;;;;;1.60;1.50;;;-5.20;99.90;;;;;;5139085;27;20471;-76
2024/01/10 08:34:12;;;;;;;1.70;1.60;;;-5.20;99.90;;;;;;5157995;27;20117;-76
2024/01/10 08:36:38;;;;;;;1.80;1.70;;;-5.20;99.90;;;;;;5157573;27;20541;-75
2024/01/10 08:39:04;;;;;;;2.00;1.90;;;-5.20;99.90;;;;;;5157518;27;20043;-75
2024/01/10 08:41:30;;;;;;;1.67;1.57;;;-5.40;99.90;;;;;;5157530;27;20386;-76
2024/01/10 08:43:56;;;;;;;1.70;1.60;;;-5.10;99.90;;;;;;5157577;27;20053;-75
2024/01/10 08:46:24;;;;;;;1.80;1.70;;;-5.30;99.90;;;;;;5157612;27;20394;-76
2024/01/10 08:48:50;;;;;;;1.70;1.60;;;-5.10;99.90;;;;;;5157175;27;20340;-75
2024/01/10 08:51:16;;;;;;;1.67;1.57;;;-5.00;99.90;;;;;;5157448;27;20462;-76
2024/01/10 08:53:45;;;;;;;1.70;1.60;;;-5.00;99.90;;;;;;5157416;27;20069;-75
2024/01/10 08:56:10;;;;;;;1.70;1.60;;;-4.90;99.90;;;;;;5157308;27;20393;-75
2024/01/10 08:58:37;;;;;;;1.70;1.60;;;-4.90;99.90;;;;;;5157295;27;20035;-75
2024/01/10 09:01:04;;;;;;;1.70;1.60;;;-4.80;99.90;;;;;;5157122;27;20038;-75
2024/01/10 09:03:30;;;;;;;1.63;1.52;;;-4.80;99.90;;;;;;5157543;27;20049;-75
2024/01/10 09:05:55;;;;;;;1.70;1.60;;;-4.70;99.90;;;;;;5157170;27;20039;-75
2024/01/10 09:08:21;;;;;;;1.70;1.60;;;-4.70;99.90;;;;;;5157141;27;20043;-75
2024/01/10 09:10:49;;;;;;;1.60;1.50;;;-4.60;99.90;;;;;;5156648;27;20039;-76
2024/01/10 09:13:14;;;;;;;1.65;1.55;;;-4.60;99.90;;;;;;5157479;27;20047;-75
2024/01/10 09:15:40;;;;;;;1.70;1.60;;;-4.50;99.90;;;;;;5156704;27;20542;-75
2024/01/10 09:18:06;;;;;;;1.60;1.50;;;-4.50;99.90;;;;;;5157232;27;20039;-76
2024/01/10 09:20:31;;;;;;;1.70;1.60;;;-4.50;99.90;;;;;;5156843;27;20042;-75
2024/01/10 09:22:57;;;;;;;1.70;1.60;;;-2.90;99.90;;;;;;5157009;27;20075;-76
2024/01/10 09:25:22;;;;;;;1.70;1.60;;;-4.70;99.90;;;;;;5156755;27;20051;-76
2024/01/10 09:27:48;;;;;;;1.70;1.60;;;-4.80;99.90;;;;;;5156782;27;20467;-76
2024/01/10 09:30:16;;;;;;;1.70;1.60;;;-4.80;99.90;;;;;;5155603;27;20050;-76
2024/01/10 09:32:42;;;;;;;1.70;1.60;;;-4.30;99.90;;;;;;5156475;27;20077;-75
2024/01/10 09:35:08;;;;;;;1.70;1.60;;;-4.20;99.90;;;;;;5156620;27;20544;-76
2024/01/10 09:37:33;;;;;;;1.70;1.60;;;-4.20;99.90;;;;;;5156526;27;20374;-76
2024/01/10 09:39:59;;;;;;;1.70;1.60;;;-4.50;99.90;;;;;;5156493;27;20091;-76
2024/01/10 09:42:25;;;;;;;1.70;1.60;;;-4.10;99.90;;;;;;5156431;27;20053;-75
2024/01/10 09:44:54;;;;;;;1.70;1.60;;;-4.00;99.90;;;;;;5156367;27;20509;-76
2024/01/10 09:47:20;;;;;;;1.70;1.60;;;-4.00;99.90;;;;;;5138027;27;20129;-75
2024/01/10 09:49:46;;;;;;;1.60;1.50;;;-3.90;99.90;;;;;;5156194;27;20101;-76
2024/01/10 09:52:23;;;;;;;1.80;1.70;;;-3.90;99.90;;;;;;5156217;27;20478;-76
2024/01/10 09:54:56;;;;;;;1.67;1.58;;;-3.80;99.90;;;;;;5156182;27;20039;-76
2024/01/10 09:57:23;;;;;;;1.60;1.50;;;-3.80;99.90;;;;;;5156137;27;20089;-76
2024/01/10 09:59:52;;;;;;;1.50;1.40;;;-3.70;99.90;;;;;;5156128;27;20070;-76
2024/01/10 10:02:19;;;;;;;1.50;1.40;;;-3.70;99.90;;;;;;5155992;27;20494;-75
2024/01/10 10:05:04;;;;;;;1.70;1.60;;;-3.60;99.90;;;;;;5156066;27;20046;-76
2024/01/10 10:07:29;;;;;;;1.70;1.60;;;-3.60;99.90;;;;;;5155944;27;20042;-76
2024/01/10 10:09:58;;;;;;;12.30;11.27;;;-3.50;99.90;;;;;;5156485;27;20099;-76
2024/01/10 10:12:45;;;;;;;1.60;1.50;;;-3.50;99.90;;;;;;5155911;27;20046;-76
2024/01/10 10:15:18;;;;;;;1.60;1.50;;;-3.40;99.90;;;;;;5155878;27;20047;-75
2024/01/10 10:17:46;;;;;;;1.60;1.50;;;-3.40;99.90;;;;;;5137175;27;20487;-76
2024/01/10 10:20:36;;;;;;;1.60;1.50;;;-3.30;99.90;;;;;;5155950;27;20328;-76
2024/01/10 10:23:06;;;;;;;1.60;1.50;;;-3.30;99.90;;;;;;5137432;27;20055;-76
2024/01/10 10:25:39;;;;;;;1.50;1.40;;;-3.10;99.90;;;;;;5155482;27;20402;-75
2024/01/10 10:28:04;;;;;;;1.60;1.50;;;-2.80;99.90;;;;;;5155481;27;20039;-76
2024/01/10 10:30:31;;;;;;;1.70;1.60;;;-3.10;99.90;;;;;;5155874;27;20037;-76
2024/01/10 10:32:57;;;;;;;1.60;1.50;;;-3.10;99.90;;;;;;5155563;27;20050;-76
2024/01/10 10:35:23;;;;;;;1.50;1.40;;;-3.00;99.90;;;;;;5155799;27;20409;-76
2024/01/10 10:37:50;;;;;;;1.60;1.50;;;-3.00;99.90;;;;;;5155445;27;20073;-76
2024/01/10 10:40:16;;;;;;;1.60;1.50;;;-2.90;99.90;;;;;;5155145;27;20042;-75
2024/01/10 10:42:47;;;;;;;1.80;1.70;;;-2.90;99.90;;;;;;5155406;27;20133;-75
2024/01/10 10:45:18;;;;;;;1.60;1.50;;;-2.90;99.90;;;;;;5155454;27;20114;-75
2024/01/10 10:47:49;;;;;;;1.70;1.60;;;-2.90;99.90;;;;;;5155342;27;20054;-76
2024/01/10 10:50:22;;;;;;;1.60;1.50;;;-2.80;99.90;;;;;;5154925;27;20050;-76
2024/01/10 10:52:50;;;;;;;1.50;1.40;;;-2.60;99.90;;;;;;5155499;27;20062;-75
2024/01/10 10:55:18;;;;;;;1.50;1.40;;;-2.70;99.90;;;;;;5155248;27;20050;-76
2024/01/10 10:57:48;;;;;;;1.50;1.40;;;-2.60;99.90;;;;;;5155250;27;20074;-76
2024/01/10 11:00:17;;;;;;;1.50;1.40;;;-2.50;99.90;;;;;;5155264;27;20077;-75
2024/01/10 11:02:44;;;;;;;1.50;1.40;;;-2.50;99.90;;;;;;5154943;27;20494;-75
2024/01/10 11:05:10;;;;;;;1.60;1.50;;;-2.50;99.90;;;;;;5155193;27;20086;-75
2024/01/10 11:07:41;;;;;;;1.60;1.50;;;-2.40;99.90;;;;;;5155143;27;20042;-75
2024/01/10 11:10:11;;;;;;;1.40;1.30;;;-2.40;99.90;;;;;;5136692;27;20031;-76
2024/01/10 11:12:55;;;;;;;1.45;1.35;;;-2.30;99.90;;;;;;5155593;27;20431;-76
2024/01/10 11:16:11;;;;;;;1.50;1.40;;;-2.30;99.90;;;;;;5156003;27;20381;-75
2024/01/10 11:18:58;;;;;;;1.50;1.40;;;-2.20;99.90;;;;;;5155305;27;20126;-75
2024/01/10 11:21:48;;;;;;;1.60;1.50;;;-1.80;99.90;;;;;;5155538;27;20133;-75
2024/01/10 11:24:14;;;;;;;1.50;1.40;;;-2.00;99.90;;;;;;5155162;27;20055;-76
2024/01/10 11:26:40;;;;;;;1.50;1.40;;;-2.00;99.90;;;;;;5155054;27;20086;-75
2024/01/10 11:29:08;;;;;;;1.55;1.45;;;-1.90;99.90;;;;;;5155321;27;20474;-76
2024/01/10 11:31:34;;;;;;;2.15;2.05;;;-1.90;99.90;;;;;;5154583;27;20442;-76
2024/01/10 11:34:01;;;;;;;1.40;1.30;;;-1.90;99.90;;;;;;5154981;27;20041;-76
2024/01/10 11:36:27;;;;;;;16.55;15.35;;;-1.80;99.90;;;;;;5154880;27;20039;-75
2024/01/10 11:38:59;;;;;;;1.50;1.40;;;-1.80;99.90;;;;;;5154768;27;20481;-76
2024/01/10 11:41:35;;;;;;;1.52;1.42;;;-1.80;99.90;;;;;;5154580;27;20047;-75
2024/01/10 11:44:10;;;;;;;1.40;1.30;;;-1.60;99.90;;;;;;5154591;27;20534;-76
2024/01/10 11:46:48;;;;;;;2.33;2.22;;;-1.60;99.90;;;;;;5154735;27;20379;-75
2024/01/10 11:49:15;;;;;;;1.50;1.40;;;-1.60;99.90;;;;;;5154409;27;20386;-75
2024/01/10 11:51:48;;;;;;;1.30;1.20;;;-1.50;99.90;;;;;;5154252;27;20095;-75
2024/01/10 11:54:41;;;;;;;1.40;1.30;;;-1.40;99.90;;;;;;5139897;27;20046;-76
2024/01/10 11:57:28;;;;;;;1.50;1.40;;;-1.40;99.90;;;;;;5158165;27;20082;-76
2024/01/10 11:59:59;;;;;;;1.40;1.30;;;-1.10;99.90;;;;;;5158175;27;20042;-75
2024/01/10 12:02:26;;;;;;;1.48;1.38;;;-1.30;99.90;;;;;;5158282;27;20057;-75
2024/01/10 12:04:55;;;;;;;1.30;1.20;;;-1.30;99.90;;;;;;5158214;27;20050;-76
2024/01/10 12:07:21;;;;;;;1.40;1.30;;;-1.20;99.90;;;;;;5158531;27;20547;-75
2024/01/10 12:09:47;;;;;;;1.30;1.20;;;-1.10;99.90;;;;;;5139935;27;20034;-75
2024/01/10 12:12:13;;;;;;;1.67;1.50;;;-1.10;99.90;;;;;;5158154;27;20042;-76
2024/01/10 12:14:40;;;;;;;1.30;1.20;;;-1.00;99.90;;;;;;5158071;27;20046;-76
2024/01/10 12:17:08;;;;;;;1.40;1.30;;;-1.00;99.90;;;;;;5158509;27;20359;-76
2024/01/10 12:19:35;;;;;;;2.60;2.40;;;-1.00;99.90;;;;;;5157973;27;20088;-75
2024/01/10 12:22:00;;;;;;;1.17;1.08;;;-0.90;99.90;;;;;;5157944;27;20051;-75
2024/01/10 12:24:30;;;;;;;1.20;1.10;;;-0.90;99.90;;;;;;5157885;27;20050;-75
2024/01/10 12:26:56;;;;;;;1.60;1.50;;;-0.90;99.90;;;;;;5157874;27;20046;-76
2024/01/10 12:29:24;;;;;;;1.30;1.20;;;-0.70;99.90;;;;;;5157591;27;20061;-76
2024/01/10 12:31:49;;;;;;;1.30;1.20;;;-0.80;99.90;;;;;;5157797;27;20050;-75
2024/01/10 12:34:15;;;;;;;1.30;1.20;;;-0.80;99.90;;;;;;5157917;27;20359;-75
2024/01/10 12:36:41;;;;;;;1.30;1.20;;;-0.70;99.90;;;;;;5157433;27;20054;-76
2024/01/10 12:39:07;;;;;;;1.23;1.13;;;-0.70;99.90;;;;;;5157632;27;20482;-75
2024/01/10 12:41:35;;;;;;;1.30;1.20;;;-0.70;99.90;;;;;;5157646;27;20057;-75
2024/01/10 12:44:03;;;;;;;1.27;1.17;;;-0.80;99.90;;;;;;5157454;27;20042;-76
2024/01/10 12:46:30;;;;;;;1.30;1.20;;;-0.80;99.90;;;;;;5157508;27;20133;-75
2024/01/10 12:49:01;;;;;;;1.20;1.10;;;-0.80;99.90;;;;;;5157267;27;20065;-75